Pagina principale
METAR-TAF:

METAR-TAF

Aeroporti :

Latina, Italia

Aeroporto di Latina

latitudine: 41-33N, longitudine: 012-54E, altezza: 25 m

Osservazione

Il bollettino è stato emesso 14 ore e 15 minuti fa, alle 17:55 UTC
Vento 6 kt da ovest
Temperature 22°C
Umidità 41%
Pressione 1015 hPa
Visibilità 10 km o più
nessuna nube inferiore a 1500 m e nessun cumulonembo

METAR: LIRL 261755Z 27006KT CAVOK 22/08 Q1015 RMK SKC MON LIB NC VIS MIN 9999 WIND THR12 28005KT WIND THR30 28006KT BLU

Ora: 10:10 (08:10 UTC)

Previsione

Il bollettino è stato emesso 18 ore e 10 minuti fa, alle 14:00 UTC
Previsione valida dal 26 alle 15 UTC al 26 alle 24 UTC
Vento 5 kt da ovest/nord-ovest
Visibilità 10 km o più
Poco nuvoloso ad un'altezza di 3000 ft

TAF: LIRL 261400Z 2615/2624 30005KT 9999 FEW030

Osservazioni e previsioni meteorologiche di più di 4000 aeroporti (messaggi METAR e TAF).

Le stazioni disponibili sono rappresentate dai dischi gialli e rossi sulla carta.

Puntare il mouse per vedere il nome della stazione.

Clicca sopra per visualizzare le osservazioni e previsioni meteorologiche.

Per cambiare la mappa : fare clic sui pulsanti verdi con una croce nera per ingrandire, il pulsante verde con un trattino per diminuire, o sulla freccia verde per le mappe adiacenti.


METAR-TAF: